Time;durP1;ratioP1;P1;durP2;ratioP2;P2;SDS_P1;SDS_P2;PMS_P1;PMS_P2;Temp;Humidity;BMP_temperature;BMP_pressure;BME280_temperature;BME280_humidity;BME280_pressure;Samples;Min_cycle;Max_cycle;Signal;HPM_P1;HPM_P2
2022/01/30 00:01:34;;;;;;;111.65;66.18;;;77.20;2227.20;;;;;;5054100;28;20048;-55
2022/01/30 00:04:00;;;;;;;77.45;46.30;;;77.30;2227.20;;;;;;5053821;28;20414;-55
2022/01/30 00:06:26;;;;;;;62.05;34.17;;;77.30;2227.20;;;;;;5053429;28;20490;-54
2022/01/30 00:08:52;;;;;;;98.07;48.53;;;77.40;2227.20;;;;;;5053690;28;20025;-54
2022/01/30 00:11:22;;;;;;;63.53;34.15;;;77.40;2227.20;;;;;;5053541;28;20033;-61
2022/01/30 00:13:48;;;;;;;35.08;19.00;;;77.40;2227.20;;;;;;5053269;28;20467;-55
2022/01/30 00:16:17;;;;;;;45.50;23.42;;;77.40;2201.60;;;;;;5053538;28;20079;-60
2022/01/30 00:19:03;;;;;;;63.88;31.67;;;77.60;2150.40;;;;;;5053518;28;20060;-54
2022/01/30 00:21:44;;;;;;;62.83;32.10;;;77.60;2150.40;;;;;;5053590;28;20111;-54
2022/01/30 00:24:27;;;;;;;106.93;55.70;;;77.70;2099.20;;;;;;5053327;28;20037;-56
2022/01/30 00:26:52;;;;;;;210.15;103.03;;;77.50;2124.80;;;;;;5053607;28;20395;-61
2022/01/30 00:29:18;;;;;;;189.02;106.10;;;77.10;2227.20;;;;;;5053118;28;20079;-60
2022/01/30 00:31:44;;;;;;;184.13;96.57;;;77.00;2227.20;;;;;;5053447;28;20033;-55
2022/01/30 00:34:09;;;;;;;204.65;108.88;;;77.20;2227.20;;;;;;5053329;28;20021;-55
2022/01/30 00:36:36;;;;;;;250.70;133.73;;;77.30;2227.20;;;;;;5053433;28;20056;-55
2022/01/30 00:39:02;;;;;;;254.82;143.27;;;77.30;2227.20;;;;;;5053420;28;20476;-54
2022/01/30 00:41:28;;;;;;;187.60;103.90;;;77.40;2227.20;;;;;;5052951;28;20029;-60
2022/01/30 00:43:53;;;;;;;158.30;86.57;;;77.50;2227.20;;;;;;5053083;28;20025;-55
2022/01/30 00:46:19;;;;;;;232.32;124.97;;;77.40;2227.20;;;;;;5052799;28;20028;-55
2022/01/30 00:48:45;;;;;;;231.00;131.35;;;77.50;2227.20;;;;;;5052846;28;20522;-54
2022/01/30 00:51:11;;;;;;;203.65;126.22;;;77.60;2227.20;;;;;;5052868;28;20387;-55
2022/01/30 00:53:37;;;;;;;228.93;131.70;;;77.60;2227.20;;;;;;5051437;28;20032;-55
2022/01/30 00:56:03;;;;;;;247.50;141.88;;;77.70;2227.20;;;;;;5053071;28;20021;-60
2022/01/30 00:58:29;;;;;;;238.98;144.02;;;77.70;2227.20;;;;;;5052613;28;20497;-54
2022/01/30 01:00:54;;;;;;;126.30;64.43;;;77.70;2227.20;;;;;;5059306;28;20021;-56
2022/01/30 01:03:20;;;;;;;210.80;107.20;;;77.60;2227.20;;;;;;5072448;28;20058;-54
2022/01/30 01:05:46;;;;;;;205.90;109.88;;;77.50;2227.20;;;;;;5072699;28;20445;-60
2022/01/30 01:08:32;;;;;;;179.40;96.10;;;77.70;2227.20;;;;;;5072798;28;20021;-54
2022/01/30 01:11:13;;;;;;;157.52;88.57;;;77.70;2227.20;;;;;;5072322;28;20036;-55
2022/01/30 01:24:10;;;;;;;159.15;90.88;;;102.40;2227.20;;;;;;5072159;28;20082;-55
2022/01/30 01:26:38;;;;;;;149.40;82.32;;;102.50;2227.20;;;;;;5072216;28;20115;-54
2022/01/30 01:29:06;;;;;;;136.75;74.57;;;102.50;2227.20;;;;;;5072539;28;20032;-54
2022/01/30 01:31:32;;;;;;;144.32;78.75;;;102.40;2227.20;;;;;;5072112;28;20059;-60
2022/01/30 01:34:18;;;;;;;149.15;79.40;;;102.50;2227.20;;;;;;5072082;28;20025;-56
2022/01/30 01:36:44;;;;;;;89.63;46.25;;;102.50;2227.20;;;;;;5072023;28;20024;-54
2022/01/30 01:39:10;;;;;;;114.10;64.10;;;102.60;2227.20;;;;;;5071919;28;20458;-55
2022/01/30 01:41:36;;;;;;;99.40;59.88;;;102.50;2227.20;;;;;;5072251;28;20021;-54
2022/01/30 01:44:02;;;;;;;326.98;175.32;;;102.50;2227.20;;;;;;5072088;28;20028;-55
2022/01/30 01:46:33;;;;;;;211.30;116.60;;;102.40;2227.20;;;;;;5071771;28;20459;-56
2022/01/30 01:48:59;;;;;;;205.63;109.15;;;102.40;2227.20;;;;;;5071605;28;20061;-54
2022/01/30 01:51:29;;;;;;;205.10;113.28;;;102.40;2227.20;;;;;;5071849;28;20045;-60
2022/01/30 01:53:56;;;;;;;216.68;111.25;;;77.70;2227.20;;;;;;5071786;28;20027;-61
2022/01/30 01:56:22;;;;;;;186.10;103.97;;;102.40;2227.20;;;;;;5071830;28;20462;-61
2022/01/30 01:58:49;;;;;;;142.50;82.07;;;77.60;2227.20;;;;;;5071384;28;20025;-55
2022/01/30 02:01:15;;;;;;;150.13;85.10;;;77.40;2227.20;;;;;;5071870;28;20036;-52
2022/01/30 02:03:43;;;;;;;142.95;81.53;;;77.60;2227.20;;;;;;5071250;28;20029;-53
2022/01/30 02:06:13;;;;;;;174.73;97.05;;;77.50;2227.20;;;;;;5071293;28;20390;-58
2022/01/30 02:08:47;;;;;;;154.93;88.38;;;77.60;2227.20;;;;;;5071200;28;20027;-57
2022/01/30 02:11:32;;;;;;;140.35;87.10;;;77.40;2227.20;;;;;;5071401;28;20047;-53
2022/01/30 02:27:32;;;;;;;148.57;75.38;;;77.00;2227.20;;;;;;5070816;28;20024;-55
2022/01/30 02:29:58;;;;;;;107.60;55.45;;;77.00;2227.20;;;;;;5070722;28;20021;-57
2022/01/30 02:32:25;;;;;;;87.13;48.80;;;76.90;2227.20;;;;;;5070760;28;20072;-55
2022/01/30 02:34:50;;;;;;;93.93;49.95;;;76.90;2227.20;;;;;;5070704;28;20493;-57
2022/01/30 02:37:17;;;;;;;86.45;46.45;;;76.80;2227.20;;;;;;5070659;28;20020;-55
2022/01/30 02:39:43;;;;;;;104.70;51.58;;;76.80;2227.20;;;;;;5070922;28;20017;-59
2022/01/30 02:42:16;;;;;;;83.85;45.42;;;52.10;2227.20;;;;;;5070871;28;20029;-55
2022/01/30 02:44:54;;;;;;;153.80;77.88;;;51.90;2227.20;;;;;;5070558;28;20028;-55
2022/01/30 02:47:58;;;;;;;36.72;21.95;;;51.50;2227.20;;;;;;5070483;28;20037;-55
2022/01/30 02:50:20;;;;;;;28.65;17.52;;;51.60;2227.20;;;;;;5068270;28;20398;-54
2022/01/30 02:52:55;;;;;;;65.13;39.70;;;51.30;2227.20;;;;;;5070653;28;20451;-55
2022/01/30 02:55:21;;;;;;;47.15;25.45;;;51.40;2227.20;;;;;;5070607;28;20024;-54
2022/01/30 02:57:47;;;;;;;32.15;16.73;;;51.40;2227.20;;;;;;5070325;28;20046;-56
2022/01/30 03:00:14;;;;;;;54.58;28.27;;;51.20;2227.20;;;;;;5070465;28;20127;-58
2022/01/30 03:02:40;;;;;;;31.48;15.27;;;51.20;2227.20;;;;;;5070253;28;20024;-54
2022/01/30 03:05:06;;;;;;;30.27;18.42;;;51.20;2227.20;;;;;;5070513;28;20373;-54
2022/01/30 03:07:32;;;;;;;35.15;16.92;;;26.50;2201.60;;;;;;5070412;28;20027;-55
2022/01/30 03:09:58;;;;;;;65.25;31.75;;;51.20;2227.20;;;;;;5070114;28;20113;-54
2022/01/30 03:12:24;;;;;;;30.65;17.05;;;51.30;2227.20;;;;;;5070444;28;20075;-56
2022/01/30 03:14:50;;;;;;;27.75;13.98;;;51.40;2227.20;;;;;;5069773;28;20382;-58
2022/01/30 03:17:15;;;;;;;46.22;24.33;;;51.60;2227.20;;;;;;5070104;28;20028;-55
2022/01/30 03:19:41;;;;;;;15.48;9.95;;;51.80;2227.20;;;;;;5070298;28;20032;-54
2022/01/30 03:22:07;;;;;;;28.98;14.82;;;51.90;2227.20;;;;;;5070538;28;20066;-55
2022/01/30 03:24:37;;;;;;;33.38;18.80;;;52.10;2227.20;;;;;;5070468;28;20029;-55
2022/01/30 03:27:07;;;;;;;27.98;14.60;;;76.90;2227.20;;;;;;5070336;28;20039;-60
2022/01/30 03:29:34;;;;;;;102.95;51.95;;;77.00;2227.20;;;;;;5070281;28;20029;-61
2022/01/30 03:32:00;;;;;;;51.03;21.13;;;77.00;2227.20;;;;;;5070065;28;20032;-60
2022/01/30 03:34:26;;;;;;;91.63;36.63;;;77.20;2227.20;;;;;;5070239;28;20025;-56
2022/01/30 03:36:52;;;;;;;65.50;28.85;;;77.30;2227.20;;;;;;5070460;28;20038;-55
2022/01/30 03:39:18;;;;;;;36.17;19.70;;;77.20;2227.20;;;;;;5070206;28;20103;-55
2022/01/30 03:41:44;;;;;;;53.90;25.25;;;77.00;2227.20;;;;;;5070822;28;20428;-55
2022/01/30 03:44:10;;;;;;;43.83;24.75;;;52.10;2227.20;;;;;;5070200;28;20070;-56
2022/01/30 03:46:35;;;;;;;39.78;19.63;;;76.80;2227.20;;;;;;5070128;28;20151;-55
2022/01/30 03:49:01;;;;;;;21.92;10.80;;;77.00;2227.20;;;;;;5069832;28;20061;-55
2022/01/30 03:51:27;;;;;;;18.38;8.90;;;51.90;2227.20;;;;;;5069820;28;20093;-55
2022/01/30 03:53:53;;;;;;;16.52;9.75;;;51.80;2227.20;;;;;;5069856;28;20039;-60
2022/01/30 03:56:18;;;;;;;12.23;6.25;;;51.80;2227.20;;;;;;5069895;28;20111;-55
2022/01/30 03:58:44;;;;;;;15.60;9.43;;;52.00;2227.20;;;;;;5069955;28;20021;-54
2022/01/30 04:01:10;;;;;;;10.32;5.20;;;52.10;2227.20;;;;;;5069742;28;20032;-55
2022/01/30 04:03:36;;;;;;;10.80;6.22;;;76.90;2227.20;;;;;;5069883;28;20024;-55
2022/01/30 04:06:06;;;;;;;15.35;8.07;;;77.00;2227.20;;;;;;5069431;28;20044;-54
2022/01/30 04:08:32;;;;;;;39.72;22.77;;;77.00;2227.20;;;;;;5069806;28;20020;-54
2022/01/30 04:10:58;;;;;;;28.67;14.30;;;77.30;2227.20;;;;;;5069631;28;20025;-54
2022/01/30 04:13:24;;;;;;;35.42;27.42;;;77.40;2227.20;;;;;;5069869;28;20028;-59
2022/01/30 04:15:50;;;;;;;33.42;20.85;;;77.60;2227.20;;;;;;5069540;28;20027;-55
2022/01/30 04:18:16;;;;;;;27.63;17.42;;;77.60;2227.20;;;;;;5069501;28;20071;-54
2022/01/30 04:20:42;;;;;;;29.20;16.08;;;77.50;2227.20;;;;;;5069601;28;20036;-55
2022/01/30 04:23:08;;;;;;;24.33;16.67;;;77.30;2227.20;;;;;;5069763;28;20426;-55
2022/01/30 04:25:34;;;;;;;23.98;17.30;;;77.40;2227.20;;;;;;5070032;28;20111;-54
2022/01/30 04:27:59;;;;;;;23.63;14.63;;;77.50;2227.20;;;;;;5072526;28;20024;-55
2022/01/30 04:30:25;;;;;;;16.25;9.52;;;77.40;2227.20;;;;;;5072969;28;20032;-55
2022/01/30 04:32:51;;;;;;;19.75;10.45;;;77.50;2227.20;;;;;;5073277;28;20116;-54
2022/01/30 04:35:25;;;;;;;25.20;12.93;;;77.70;2227.20;;;;;;5073171;28;20020;-60
2022/01/30 04:38:11;;;;;;;24.48;13.45;;;77.70;2227.20;;;;;;5073331;28;20081;-56
2022/01/30 04:57:17;;;;;;;;;;;102.40;2227.20;;;;;;5073584;28;20028;-61
2022/01/30 05:02:45;;;;;;;11.05;7.47;;;102.40;2227.20;;;;;;5072806;28;20036;-54
2022/01/30 05:07:47;;;;;;;9.75;6.40;;;102.70;2227.20;;;;;;5072920;28;20158;-53
2022/01/30 05:10:13;;;;;;;7.53;4.45;;;102.80;2227.20;;;;;;5072824;28;20081;-55
2022/01/30 05:12:52;;;;;;;9.40;5.13;;;103.00;2227.20;;;;;;5072451;28;20123;-55
2022/01/30 05:15:19;;;;;;;85.57;58.45;;;102.90;2227.20;;;;;;5072232;28;20032;-61
2022/01/30 05:17:45;;;;;;;10.93;6.65;;;102.90;2227.20;;;;;;5072841;28;20043;-55
2022/01/30 05:20:12;;;;;;;8.25;6.30;;;103.00;2227.20;;;;;;5072407;28;20020;-56
2022/01/30 05:22:38;;;;;;;11.68;10.45;;;103.10;2227.20;;;;;;5072521;28;20079;-60
2022/01/30 05:25:04;;;;;;;8.68;5.18;;;103.20;2227.20;;;;;;5072521;28;20107;-54
2022/01/30 05:27:30;;;;;;;12.05;7.05;;;103.30;2227.20;;;;;;5072175;28;20040;-55
2022/01/30 05:29:56;;;;;;;11.23;5.25;;;103.30;2227.20;;;;;;5071931;28;20036;-55
2022/01/30 05:32:22;;;;;;;9.98;5.93;;;128.20;2150.40;;;;;;5072565;28;20106;-55
2022/01/30 05:34:48;;;;;;;58.65;35.97;;;128.50;2099.20;;;;;;5072076;28;20021;-60
2022/01/30 05:37:18;;;;;;;37.67;21.80;;;102.90;2227.20;;;;;;5072465;28;20044;-54
2022/01/30 05:39:45;;;;;;;32.70;20.08;;;102.60;2227.20;;;;;;5071589;28;20032;-55
2022/01/30 05:42:12;;;;;;;43.03;24.50;;;102.80;2227.20;;;;;;5071868;28;20020;-56
2022/01/30 05:45:10;;;;;;;19.15;12.18;;;102.80;2227.20;;;;;;5071954;28;20035;-54
2022/01/30 05:47:32;;;;;;;29.83;17.05;;;102.70;2227.20;;;;;;5071672;28;20111;-58
2022/01/30 05:49:58;;;;;;;43.38;19.83;;;102.80;2227.20;;;;;;5071825;28;20102;-56
2022/01/30 05:52:24;;;;;;;36.28;24.23;;;102.80;2227.20;;;;;;5071849;28;20093;-54
2022/01/30 05:54:50;;;;;;;54.00;33.10;;;102.90;2227.20;;;;;;5071594;28;20025;-55
2022/01/30 05:57:16;;;;;;;39.08;22.45;;;103.10;2227.20;;;;;;5070809;28;20045;-61
2022/01/30 05:59:42;;;;;;;52.28;30.13;;;103.10;2227.20;;;;;;5070964;28;20028;-58
2022/01/30 06:02:07;;;;;;;96.22;51.03;;;103.20;2227.20;;;;;;5071055;28;20111;-54
2022/01/30 06:04:33;;;;;;;49.47;27.98;;;103.30;2227.20;;;;;;5071054;28;20032;-54
2022/01/30 06:07:00;;;;;;;34.97;21.40;;;103.00;2227.20;;;;;;5071043;28;20060;-55
2022/01/30 06:09:26;;;;;;;37.63;19.35;;;103.20;2227.20;;;;;;5071089;28;20033;-54
2022/01/30 06:11:52;;;;;;;28.52;14.00;;;103.30;2227.20;;;;;;5071160;28;20041;-55
2022/01/30 06:14:20;;;;;;;46.15;25.42;;;128.00;2252.80;;;;;;5071130;28;20020;-55
2022/01/30 06:16:46;;;;;;;81.32;43.47;;;103.20;2227.20;;;;;;5071133;28;20029;-55
2022/01/30 06:19:11;;;;;;;38.65;23.55;;;128.00;2252.80;;;;;;5071363;28;20058;-56
2022/01/30 06:21:37;;;;;;;28.85;18.58;;;103.30;2227.20;;;;;;5071356;28;20130;-54
2022/01/30 06:24:03;;;;;;;28.92;18.23;;;128.00;2252.80;;;;;;5071111;28;20411;-55
2022/01/30 06:26:29;;;;;;;28.00;17.38;;;128.30;2252.80;;;;;;5071083;28;20040;-55
2022/01/30 06:28:55;;;;;;;21.58;11.23;;;128.40;2252.80;;;;;;5071091;28;20039;-61
2022/01/30 06:31:20;;;;;;;24.00;13.40;;;128.50;2252.80;;;;;;5070946;28;20028;-55
2022/01/30 06:33:46;;;;;;;59.97;33.42;;;128.70;2227.20;;;;;;5070922;28;20024;-56
2022/01/30 06:36:12;;;;;;;49.15;30.77;;;128.70;2252.80;;;;;;5070990;28;20065;-57
2022/01/30 06:38:38;;;;;;;48.55;26.42;;;128.50;2252.80;;;;;;5071015;28;20070;-54
2022/01/30 06:41:04;;;;;;;25.90;14.90;;;128.40;2252.80;;;;;;5069616;28;20424;-62
2022/01/30 06:43:30;;;;;;;9.52;6.30;;;128.50;2252.80;;;;;;5070639;28;20028;-55
2022/01/30 06:45:56;;;;;;;120.68;69.20;;;128.70;2201.60;;;;;;5071107;28;20025;-56
2022/01/30 06:48:22;;;;;;;110.63;64.90;;;128.90;2252.80;;;;;;5070668;28;20017;-62
2022/01/30 06:50:48;;;;;;;74.88;49.45;;;128.60;2252.80;;;;;;5070430;28;20043;-55
2022/01/30 06:53:14;;;;;;;78.80;43.65;;;128.90;2252.80;;;;;;5070445;28;20024;-55
2022/01/30 06:55:42;;;;;;;54.28;33.33;;;153.60;2227.20;;;;;;5070438;28;20017;-55
2022/01/30 06:58:09;;;;;;;46.05;30.90;;;128.80;2252.80;;;;;;5070887;28;20028;-54
2022/01/30 07:00:36;;;;;;;139.77;68.05;;;128.90;2252.80;;;;;;5070563;28;20024;-55
2022/01/30 07:03:02;;;;;;;419.80;180.65;;;128.80;2252.80;;;;;;5070637;28;20533;-55
2022/01/30 07:05:28;;;;;;;722.55;376.45;;;153.70;2252.80;;;;;;5070701;28;20024;-55
2022/01/30 07:07:53;;;;;;;305.70;128.23;;;154.00;2227.20;;;;;;5070478;28;20385;-54
2022/01/30 07:10:20;;;;;;;146.27;71.70;;;154.20;2124.80;;;;;;5070401;28;20039;-55
2022/01/30 07:12:46;;;;;;;96.80;48.17;;;154.20;2099.20;;;;;;5070058;28;20093;-60
2022/01/30 07:15:12;;;;;;;74.45;43.33;;;154.10;2124.80;;;;;;5070249;28;20474;-54
2022/01/30 07:17:38;;;;;;;131.57;71.80;;;154.00;2150.40;;;;;;5070337;28;20082;-54
2022/01/30 07:20:08;;;;;;;112.45;70.85;;;154.10;2124.80;;;;;;5070292;28;20016;-58
2022/01/30 07:22:34;;;;;;;97.32;52.72;;;153.80;2124.80;;;;;;5070379;28;20028;-62
2022/01/30 07:25:00;;;;;;;107.78;66.30;;;153.60;2176.00;;;;;;5070184;28;20027;-55
2022/01/30 07:27:26;;;;;;;49.47;29.83;;;153.70;2150.40;;;;;;5070302;28;20021;-60
2022/01/30 07:29:52;;;;;;;61.33;37.10;;;153.60;2150.40;;;;;;5070080;28;20029;-55
2022/01/30 07:32:18;;;;;;;91.68;51.97;;;128.90;2201.60;;;;;;5073469;28;20032;-59
2022/01/30 07:34:45;;;;;;;99.25;55.63;;;128.90;2201.60;;;;;;5073648;28;20024;-57
2022/01/30 07:37:12;;;;;;;61.45;34.75;;;153.60;2201.60;;;;;;5073508;28;20040;-60
2022/01/30 07:39:39;;;;;;;54.42;34.58;;;153.60;2176.00;;;;;;5075135;28;20050;-54
2022/01/30 07:42:05;;;;;;;52.70;29.35;;;153.70;2176.00;;;;;;5075810;28;20474;-56
2022/01/30 07:44:31;;;;;;;85.78;51.38;;;153.90;2150.40;;;;;;5075430;28;20082;-59
2022/01/30 07:46:57;;;;;;;101.38;58.65;;;153.90;2201.60;;;;;;5075427;28;20492;-56
2022/01/30 07:49:22;;;;;;;87.63;50.58;;;153.90;2201.60;;;;;;5074235;28;20131;-58
2022/01/30 07:51:49;;;;;;;76.97;43.92;;;154.00;2201.60;;;;;;5074334;28;20033;-60
2022/01/30 07:54:14;;;;;;;81.72;48.55;;;154.10;2176.00;;;;;;5073670;28;20051;-59
2022/01/30 07:56:40;;;;;;;74.47;40.25;;;154.30;2150.40;;;;;;5074327;28;20542;-58
2022/01/30 07:59:06;;;;;;;75.13;42.00;;;154.50;2124.80;;;;;;5074112;28;20386;-60
2022/01/30 08:01:31;;;;;;;58.28;36.58;;;179.90;2073.60;;;;;;5075196;28;20094;-58
2022/01/30 08:03:58;;;;;;;63.00;38.72;;;230.60;1920.00;;;;;;5075572;28;20028;-60
2022/01/30 08:06:24;;;;;;;106.60;77.38;;;281.80;1740.80;;;;;;5075990;28;20036;-58
2022/01/30 08:08:49;;;;;;;222.05;171.25;;;282.50;1638.40;;;;;;5076322;28;20031;-56
2022/01/30 08:11:15;;;;;;;271.30;209.02;;;307.40;1689.60;;;;;;5078096;28;20071;-56
2022/01/30 08:13:41;;;;;;;199.07;139.93;;;332.80;1664.00;;;;;;5074746;28;20111;-55
2022/01/30 08:16:07;;;;;;;201.88;145.75;;;333.50;1536.00;;;;;;5072954;28;20450;-56
2022/01/30 08:18:37;;;;;;;160.07;119.82;;;333.20;1561.60;;;;;;5074104;28;20111;-57
2022/01/30 08:21:05;;;;;;;184.55;139.55;;;333.20;1587.20;;;;;;5082481;28;20029;-55
2022/01/30 08:23:33;;;;;;;145.40;104.60;;;333.20;1587.20;;;;;;5077021;28;20021;-55
2022/01/30 08:26:00;;;;;;;243.30;173.57;;;333.40;1561.60;;;;;;5076212;28;20029;-56
2022/01/30 08:28:26;;;;;;;237.23;176.30;;;358.40;1536.00;;;;;;5072137;28;20059;-57
2022/01/30 08:30:52;;;;;;;151.85;120.47;;;359.00;1484.80;;;;;;5073180;28;20037;-55
2022/01/30 08:33:18;;;;;;;126.80;94.07;;;384.60;1408.00;;;;;;5071741;28;20043;-56
2022/01/30 08:35:45;;;;;;;122.75;97.72;;;435.20;1356.80;;;;;;5073247;28;20443;-59
2022/01/30 08:38:13;;;;;;;94.00;76.55;;;435.90;1305.60;;;;;;5071742;28;20040;-60
2022/01/30 08:40:38;;;;;;;106.25;84.40;;;461.30;1254.40;;;;;;5072288;28;20738;-56
2022/01/30 08:43:04;;;;;;;493.40;390.92;;;461.40;1254.40;;;;;;5073298;28;20043;-56
2022/01/30 08:45:30;;;;;;;398.08;317.48;;;461.30;1305.60;;;;;;5072741;28;20025;-56
2022/01/30 08:47:56;;;;;;;267.80;218.48;;;461.30;1305.60;;;;;;5072862;28;20021;-55
2022/01/30 08:50:22;;;;;;;297.05;234.65;;;486.80;1203.20;;;;;;5072807;28;20132;-60
2022/01/30 08:52:49;;;;;;;119.75;98.07;;;512.00;1203.20;;;;;;5072657;28;20036;-62
2022/01/30 08:55:16;;;;;;;179.07;153.70;;;486.90;1152.00;;;;;;5072906;28;20094;-55
2022/01/30 08:57:42;;;;;;;322.77;286.02;;;486.80;1177.60;;;;;;5072217;28;20039;-57
2022/01/30 09:00:11;;;;;;;206.27;183.80;;;486.80;1228.80;;;;;;5072461;28;20131;-60
2022/01/30 09:02:38;;;;;;;318.42;283.42;;;461.60;1228.80;;;;;;5071303;28;20032;-57
2022/01/30 09:05:05;;;;;;;338.17;300.98;;;461.10;1280.00;;;;;;5072801;28;20024;-57
2022/01/30 09:07:31;;;;;;;376.45;334.10;;;461.40;1280.00;;;;;;5072852;28;20127;-58
2022/01/30 09:09:57;;;;;;;319.08;283.60;;;435.80;1280.00;;;;;;5072424;28;20522;-54
2022/01/30 09:12:24;;;;;;;260.10;217.27;;;435.40;1331.20;;;;;;5072709;28;20036;-55
2022/01/30 09:14:50;;;;;;;190.07;165.82;;;409.80;1331.20;;;;;;5070119;28;20060;-62
2022/01/30 09:17:17;;;;;;;257.35;206.82;;;409.90;1331.20;;;;;;5072047;28;20028;-59
2022/01/30 09:19:44;;;;;;;291.40;252.52;;;410.30;1331.20;;;;;;5072408;28;20025;-55
2022/01/30 09:22:13;;;;;;;277.02;242.60;;;435.90;1305.60;;;;;;5072287;28;20029;-55
2022/01/30 09:24:39;;;;;;;278.80;245.38;;;461.00;1280.00;;;;;;5072304;28;20025;-55
2022/01/30 09:27:07;;;;;;;269.95;240.52;;;461.60;1254.40;;;;;;5072420;28;20029;-55
2022/01/30 09:33:46;;;;;;;235.07;209.82;;;512.20;1152.00;;;;;;5060569;22;20056;-63
2022/01/30 09:36:12;;;;;;;199.48;177.75;;;512.70;1126.40;;;;;;4933121;29;20063;-63
2022/01/30 09:38:38;;;;;;;229.98;205.25;;;512.40;1126.40;;;;;;4934795;29;20028;-63
2022/01/30 09:41:05;;;;;;;237.77;212.05;;;512.30;1126.40;;;;;;4937289;29;20078;-63
2022/01/30 09:43:32;;;;;;;239.23;210.95;;;512.50;1126.40;;;;;;4939482;29;20035;-64
2022/01/30 09:45:59;;;;;;;197.35;174.75;;;538.00;1100.80;;;;;;4940715;29;20496;-62
2022/01/30 09:48:25;;;;;;;148.27;132.38;;;512.90;1100.80;;;;;;4941714;29;20060;-62
2022/01/30 09:50:51;;;;;;;82.82;72.25;;;512.00;1152.00;;;;;;4950011;29;20027;-63
2022/01/30 09:53:18;;;;;;;83.30;68.57;;;487.10;1177.60;;;;;;4942597;29;20038;-64
2022/01/30 09:55:44;;;;;;;269.95;229.15;;;486.80;1177.60;;;;;;4936997;29;20057;-63
2022/01/30 09:58:09;;;;;;;245.95;197.82;;;461.50;1228.80;;;;;;4934609;29;20061;-64
2022/01/30 10:00:35;;;;;;;169.38;134.85;;;461.20;1280.00;;;;;;4941371;29;20023;-66
2022/01/30 10:03:01;;;;;;;234.35;188.40;;;460.80;1280.00;;;;;;4929410;29;20046;-64
2022/01/30 10:05:32;;;;;;;147.05;117.68;;;436.10;1280.00;;;;;;4934065;29;20386;-63
2022/01/30 10:07:58;;;;;;;130.45;104.97;;;435.70;1280.00;;;;;;4934274;29;20023;-65
2022/01/30 10:10:27;;;;;;;124.85;103.30;;;435.40;1254.40;;;;;;4934193;29;20023;-64
2022/01/30 10:12:59;;;;;;;103.03;82.28;;;435.90;1280.00;;;;;;4934370;29;20138;-63
2022/01/30 10:15:25;;;;;;;284.42;239.02;;;435.70;1254.40;;;;;;4933968;29;20020;-62
2022/01/30 10:17:51;;;;;;;106.35;86.03;;;435.40;1331.20;;;;;;4933285;29;20023;-63
2022/01/30 10:20:16;;;;;;;109.93;87.68;;;410.50;1228.80;;;;;;4932177;29;20050;-62
2022/01/30 10:22:58;;;;;;;128.98;98.90;;;410.00;1254.40;;;;;;4947250;28;20102;-63
2022/01/30 10:25:30;;;;;;;128.45;103.03;;;410.00;1254.40;;;;;;4932112;29;20062;-64
2022/01/30 10:28:30;;;;;;;107.15;80.88;;;410.00;1254.40;;;;;;4932396;29;20028;-60
2022/01/30 10:31:01;;;;;;;72.30;53.03;;;410.00;1203.20;;;;;;4911173;29;20047;-61
2022/01/30 10:33:47;;;;;;;42.30;31.52;;;409.80;1177.60;;;;;;4913044;29;20059;-60
2022/01/30 10:36:21;;;;;;;20.92;14.45;;;409.60;1177.60;;;;;;4912802;29;20044;-60
2022/01/30 10:39:04;;;;;;;18.33;11.38;;;409.60;1152.00;;;;;;4912425;29;20435;-59
2022/01/30 10:41:38;;;;;;;22.98;17.45;;;409.70;1152.00;;;;;;4912841;29;20071;-59
2022/01/30 10:44:08;;;;;;;11.82;8.52;;;409.80;1126.40;;;;;;4912297;29;20031;-58
2022/01/30 10:46:46;;;;;;;17.55;11.68;;;409.90;1126.40;;;;;;4912300;29;20031;-59
2022/01/30 10:49:17;;;;;;;15.10;9.73;;;409.80;1126.40;;;;;;4911779;29;20040;-59
2022/01/30 10:52:00;;;;;;;13.93;5.78;;;409.80;1152.00;;;;;;4911318;29;20143;-60
2022/01/30 10:54:34;;;;;;;8.50;5.63;;;384.80;1100.80;;;;;;4909339;29;20443;-59
2022/01/30 10:57:07;;;;;;;8.75;4.53;;;384.70;1100.80;;;;;;4912463;29;20055;-59
2022/01/30 10:59:33;;;;;;;;;;;409.60;1100.80;;;;;;4912874;29;20035;-60
2022/01/30 11:02:14;;;;;;;4.82;2.97;;;384.60;1100.80;;;;;;4912224;29;20276;-59
2022/01/30 11:04:40;;;;;;;5.35;3.30;;;384.20;1100.80;;;;;;4912481;29;20044;-59
2022/01/30 11:07:06;;;;;;;5.45;3.33;;;384.10;1126.40;;;;;;4916892;29;20046;-59
2022/01/30 11:09:43;;;;;;;9.70;7.28;;;384.00;1100.80;;;;;;4933626;29;20038;-58
2022/01/30 11:12:13;;;;;;;5.88;2.75;;;359.20;1100.80;;;;;;4933356;29;20067;-59
2022/01/30 11:14:52;;;;;;;27.02;21.05;;;359.10;1126.40;;;;;;4933172;29;20063;-57
2022/01/30 11:17:22;;;;;;;11.93;7.82;;;359.20;1126.40;;;;;;4940088;29;20031;-60
2022/01/30 11:19:53;;;;;;;7.28;6.18;;;358.90;1152.00;;;;;;4931708;29;20064;-59
2022/01/30 11:22:21;;;;;;;7.75;3.50;;;358.90;1152.00;;;;;;4931650;29;20027;-59
2022/01/30 11:25:08;;;;;;;19.30;12.90;;;359.00;1152.00;;;;;;4931494;29;20055;-60
2022/01/30 11:27:34;;;;;;;15.18;8.80;;;359.10;1126.40;;;;;;4931511;29;20544;-60
2022/01/30 11:30:01;;;;;;;13.55;8.43;;;359.10;1152.00;;;;;;4931224;29;20036;-59
2022/01/30 11:32:28;;;;;;;7.22;3.50;;;359.00;1100.80;;;;;;4931121;29;20475;-59
2022/01/30 11:34:55;;;;;;;290.85;151.10;;;359.00;1126.40;;;;;;4930900;29;20043;-60
2022/01/30 11:37:23;;;;;;;16.08;10.27;;;359.00;1126.40;;;;;;4931065;29;20031;-58
2022/01/30 11:39:52;;;;;;;44.88;32.10;;;358.80;1100.80;;;;;;4931468;29;20079;-59
2022/01/30 11:42:36;;;;;;;15.18;7.57;;;358.90;1100.80;;;;;;4931109;29;20015;-59
2022/01/30 11:45:08;;;;;;;11.02;7.57;;;358.90;1100.80;;;;;;4931188;29;20028;-58
2022/01/30 11:47:55;;;;;;;16.52;11.32;;;358.90;1100.80;;;;;;4931301;29;20104;-59
2022/01/30 11:50:25;;;;;;;10.45;7.57;;;359.00;1100.80;;;;;;4931430;29;20047;-59
2022/01/30 11:52:53;;;;;;;7.30;4.32;;;358.90;1075.20;;;;;;4931358;29;20059;-60
2022/01/30 11:55:41;;;;;;;5.85;3.75;;;359.10;1100.80;;;;;;4930858;29;20032;-58
2022/01/30 11:58:27;;;;;;;12.98;8.50;;;359.10;1100.80;;;;;;4931227;29;20501;-58
2022/01/30 12:00:52;;;;;;;16.38;10.75;;;384.20;1126.40;;;;;;4931051;29;20027;-59
2022/01/30 12:03:26;;;;;;;11.85;7.38;;;384.20;1100.80;;;;;;4931101;29;20039;-58
2022/01/30 12:05:54;;;;;;;12.85;6.10;;;384.20;1100.80;;;;;;4931157;29;20567;-59
2022/01/30 12:08:46;;;;;;;12.98;9.85;;;384.10;1075.20;;;;;;4931075;29;20036;-59
2022/01/30 12:11:36;;;;;;;35.55;23.83;;;359.30;1100.80;;;;;;4933231;29;20039;-59
2022/01/30 12:14:06;;;;;;;24.40;18.17;;;384.10;1100.80;;;;;;4934942;29;20442;-59
2022/01/30 12:16:49;;;;;;;12.95;7.18;;;384.00;1100.80;;;;;;4930979;29;20482;-59
2022/01/30 12:19:47;;;;;;;9.32;6.03;;;359.30;1100.80;;;;;;4930954;29;20059;-59
2022/01/30 12:22:16;;;;;;;35.13;25.50;;;359.20;1100.80;;;;;;4909027;29;20055;-60
2022/01/30 12:24:43;;;;;;;25.42;16.25;;;359.20;1126.40;;;;;;4909614;29;20131;-58
2022/01/30 12:27:09;;;;;;;36.72;28.02;;;359.10;1126.40;;;;;;4909538;29;20036;-58
2022/01/30 12:29:35;;;;;;;29.17;22.63;;;359.20;1126.40;;;;;;4909478;29;20399;-59
2022/01/30 12:32:26;;;;;;;27.38;20.10;;;359.30;1126.40;;;;;;4909456;29;20390;-59
2022/01/30 12:34:54;;;;;;;24.05;19.88;;;359.20;1126.40;;;;;;4908842;29;20091;-60
2022/01/30 12:37:21;;;;;;;44.45;36.13;;;359.00;1126.40;;;;;;4909505;29;20119;-60
2022/01/30 12:39:46;;;;;;;29.52;21.33;;;358.80;1152.00;;;;;;4908360;29;20032;-60
2022/01/30 12:42:17;;;;;;;31.20;21.33;;;358.60;1152.00;;;;;;4909339;29;20059;-61
2022/01/30 12:44:44;;;;;;;34.47;25.35;;;358.50;1152.00;;;;;;4909349;29;20055;-59
2022/01/30 12:47:10;;;;;;;31.48;24.20;;;358.80;1177.60;;;;;;4908866;29;20037;-59
2022/01/30 12:49:51;;;;;;;59.28;45.53;;;358.90;1177.60;;;;;;4912571;29;20032;-59
2022/01/30 12:52:32;;;;;;;26.10;21.15;;;359.00;1152.00;;;;;;4912363;29;20051;-59
2022/01/30 12:55:05;;;;;;;54.05;39.53;;;359.10;1152.00;;;;;;4912773;29;20043;-59
2022/01/30 12:57:32;;;;;;;54.33;38.67;;;359.00;1152.00;;;;;;4913052;29;20544;-60